Kunda, Estonia

11:11 AM EEST on July 23, 2014 (GMT +0300)
Ulemiste (EETN) Elev 131 ft | 59.41 °N, 24.83 °E | Change Station

Current weather conditions updated 21 minutes ago

Clear
Clear
77 °F
Feels Like 77 °F
N
7
Wind Variable Wind from NE

Today is forecast to be nearly the same temperature as yesterday.

Today
High -- | Low -- °F
--% Chance of Precip.
Yesterday
High -- | Low -- °F
Precip. -- in
4:37 AM 10:01 PM
Waning Crescent, 12% visible
Pressure 30.24 in
Visibility -9999.0 miles
Clouds
Dew Point 55 °F
Humidity 47%
Rainfall 0.00 in
Snow Depth Not available.
UV Not available.
Pollen Not available.
Air Quality Not available.
Flu Activity Not available.
METAR EETN 230750Z 04006KT CAVOK 25/13 Q1024 NOSIG

More Conditions Fewer Conditions

Pressure 30.24 in
Visibility -9999.0 miles
Clouds
Dew Point 55 °F
Humidity 47%
Rainfall 0.00 in
Snow Depth Not available.
UV Not available.
Pollen Not available.
Air Quality Not available.
Flu Activity Not available.
METAR EETN 230750Z 04006KT CAVOK 25/13 Q1024 NOSIG

More Conditions Fewer Conditions

10-Day Weather Forecast

Almanac

Astronomy

Jul. 23, 2014 Rise Set
Actual Time 4:37 AM EEST 10:01 PM EEST
Civil Twilight 3:30 AM EEST 11:07 PM EEST
Nautical Twilight 1:52 AM EEST 12:47 AM EEST
Astronomical Twilight Sun does not rise Sun does not rise
Moon 1:51 AM EEST 7:06 PM EEST
Length of Visible Light 19h 36m
Length of Day
17h 24m
Tomorrow will be 4m 14s shorter.
Waning Crescent, 12% of the Moon is Illuminated
Today
Waning Crescent
Jul 26
New
Aug 3
First Quarter
Aug 10
Full
Aug 17
Last Quarter

Yesterday's Extremes

Country Highs Country Lows

Community

WunderPhotos

Upload Photos

1,736,529 photos uploaded!

Nearby

Snow Depth

Not available.

Earthquake Activity

City Distance Mag. Time & Date
No recent earthquake activity has been reported nearby.
Minimum magnitude displayed is 2.5.

Coastal Water Temperatures

Place Temperature
No Stations Reporting

Nearby Weather Stations

There are no personal weather stations in this area.